Latest Weather Observations for Banana Bank

IDQ60801

Issued at 12:13 pm EST Friday 4 December 2020 (issued every 10 minutes, with the page automatically refreshed every 10 minutes)

About weather observations | Map of weather stations | Latest weather observations for QLD | Other Formats
Station Details ID: 040925 Name: BANANA BANK NORTH BEACON Lat: -27.53 Lon: 153.33 Height: 7.0 m
Data from the previous 72 hours. | See also: Recent months at Banana Bank
Date/Time
EST
Temp
°C
App
Temp
°C
Dew
Point
°C
Rel
Hum
%
Delta-T
°C
Wind Press
QNH
hPa
Press
MSL
hPa
Rain since
9am
mm
Dir  Spd
km/h
Gust
km/h
Spd
kts
Gust
kts
04/12:00pm - - - - - N 24 30 13 16 - - -
04/11:30am - - - - - N 24 28 13 15 - - -
04/11:00am - - - - - N 24 28 13 15 - - -
04/10:30am - - - - - NNW 28 32 15 17 - - -
04/10:00am - - - - - NNW 26 28 14 15 - - -
04/09:30am - - - - - NNW 24 28 13 15 - - -
04/09:00am - - - - - NNW 22 28 12 15 - - -
04/08:30am - - - - - NNW 20 24 11 13 - - -
04/08:00am - - - - - NNW 15 17 8 9 - - -
04/07:30am - - - - - N 13 15 7 8 - - -
04/07:00am - - - - - N 6 7 3 4 - - -
04/06:30am - - - - - CALM 0 2 0 1 - - -
04/06:00am - - - - - CALM 0 2 0 1 - - -
04/05:30am - - - - - S 6 6 3 3 - - -
04/05:00am - - - - - SW 9 9 5 5 - - -
04/04:30am - - - - - SW 9 13 5 7 - - -
04/04:00am - - - - - S 6 7 3 4 - - -
04/03:30am - - - - - SSE 7 11 4 6 - - -
04/03:00am - - - - - SE 7 9 4 5 - - -
04/02:30am - - - - - SSE 6 7 3 4 - - -
04/02:00am - - - - - S 2 6 1 3 - - -
04/01:30am - - - - - SSW 6 7 3 4 - - -
04/01:00am - - - - - SSE 6 7 3 4 - - -
04/12:30am - - - - - CALM 0 0 0 0 - - -
04/12:00am - - - - - ESE 6 9 3 5 - - -
 
Date/Time
EST
Temp
°C
App
Temp
°C
Dew
Point
°C
Rel
Hum
%
Delta-T
°C
Wind Press
QNH
hPa
Press
MSL
hPa
Rain since
9am
mm
Dir  Spd
km/h
Gust
km/h
Spd
kts
Gust
kts
03/11:30pm - - - - - E 6 7 3 4 - - -
03/11:00pm - - - - - E 6 9 3 5 - - -
03/10:30pm - - - - - SE 6 6 3 3 - - -
03/10:00pm - - - - - E 4 7 2 4 - - -
03/09:30pm - - - - - NE 6 9 3 5 - - -
03/09:00pm - - - - - NE 7 11 4 6 - - -
03/08:30pm - - - - - ENE 9 13 5 7 - - -
03/08:00pm - - - - - E 9 11 5 6 - - -
03/07:30pm - - - - - ENE 9 11 5 6 - - -
03/07:00pm - - - - - NE 11 15 6 8 - - -
03/06:30pm - - - - - NNE 15 17 8 9 - - -
03/06:00pm - - - - - NNE 13 17 7 9 - - -
03/05:30pm - - - - - NNE 13 15 7 8 - - -
03/05:00pm - - - - - NNE 11 15 6 8 - - -
03/04:30pm - - - - - N 11 15 6 8 - - -
03/04:00pm - - - - - N 15 17 8 9 - - -
03/03:30pm - - - - - NNW 13 17 7 9 - - -
03/03:00pm - - - - - N 13 17 7 9 - - -
03/02:30pm - - - - - N 13 15 7 8 - - -
03/02:00pm - - - - - NNW 13 17 7 9 - - -
03/01:30pm - - - - - N 17 20 9 11 - - -
03/01:00pm - - - - - N 15 17 8 9 - - -
03/12:30pm - - - - - N 19 22 10 12 - - -
03/12:00pm - - - - - N 19 22 10 12 - - -
03/11:30am - - - - - N 19 22 10 12 - - -
03/11:00am - - - - - N 20 24 11 13 - - -
03/10:30am - - - - - N 19 22 10 12 - - -
03/10:00am - - - - - N 19 22 10 12 - - -
03/09:30am - - - - - NE 7 11 4 6 - - -
03/09:00am - - - - - SE 15 19 8 10 - - -
03/08:30am - - - - - SE 17 20 9 11 - - -
03/08:00am - - - - - NE 7 13 4 7 - - -
03/07:30am - - - - - NE 17 19 9 10 - - -
03/07:00am - - - - - NE 17 20 9 11 - - -
03/06:30am - - - - - NNE 15 20 8 11 - - -
03/06:00am - - - - - NE 13 15 7 8 - - -
03/05:30am - - - - - NE 11 15 6 8 - - -
03/05:00am - - - - - NE 20 24 11 13 - - -
03/04:30am - - - - - NNE 19 20 10 11 - - -
03/04:00am - - - - - NNE 13 17 7 9 - - -
03/03:30am - - - - - NE 15 17 8 9 - - -
03/03:00am - - - - - NE 9 11 5 6 - - -
03/02:30am - - - - - W 4 4 2 2 - - -
03/02:00am - - - - - CALM 0 0 0 0 - - -
03/01:30am - - - - - CALM 0 0 0 0 - - -
03/01:00am - - - - - CALM 0 0 0 0 - - -
03/12:30am - - - - - CALM 0 4 0 2 - - -
03/12:00am - - - - - ENE 15 19 8 10 - - -
 
Date/Time
EST
Temp
°C
App
Temp
°C
Dew
Point
°C
Rel
Hum
%
Delta-T
°C
Wind Press
QNH
hPa
Press
MSL
hPa
Rain since
9am
mm
Dir  Spd
km/h
Gust
km/h
Spd
kts
Gust
kts
02/11:30pm - - - - - ESE 13 15 7 8 - - -
02/11:00pm - - - - - E 13 17 7 9 - - -
02/10:30pm - - - - - E 15 19 8 10 - - -
02/10:00pm - - - - - ESE 7 11 4 6 - - -
02/09:30pm - - - - - ENE 9 13 5 7 - - -
02/09:00pm - - - - - ENE 17 20 9 11 - - -
02/08:30pm - - - - - NE 13 17 7 9 - - -
02/08:00pm - - - - - NNE 19 24 10 13 - - -
02/07:30pm - - - - - NNE 19 22 10 12 - - -
02/07:00pm - - - - - NNE 17 20 9 11 - - -
02/06:30pm - - - - - NE 22 26 12 14 - - -
02/06:00pm - - - - - N 20 24 11 13 - - -
02/05:30pm - - - - - N 26 30 14 16 - - -
02/05:00pm - - - - - N 22 24 12 13 - - -
02/04:30pm - - - - - NNE 20 26 11 14 - - -
02/04:00pm - - - - - N 26 32 14 17 - - -
02/03:30pm - - - - - NNE 24 30 13 16 - - -
02/03:00pm - - - - - NNE 26 33 14 18 - - -
02/02:30pm - - - - - NNE 35 43 19 23 - - -
02/02:00pm - - - - - NNE 32 37 17 20 - - -
02/01:30pm - - - - - NNE 28 35 15 19 - - -
02/01:00pm - - - - - NNE 24 32 13 17 - - -
02/12:30pm - - - - - NNE 24 30 13 16 - - -
02/12:00pm - - - - - NNE 24 30 13 16 - - -
02/11:30am - - - - - N 17 20 9 11 - - -
02/11:00am - - - - - N 20 24 11 13 - - -
02/10:30am - - - - - N 20 22 11 12 - - -
02/10:00am - - - - - N 20 26 11 14 - - -
02/09:30am - - - - - N 26 30 14 16 - - -
02/09:00am - - - - - N 22 28 12 15 - - -
02/08:30am - - - - - N 19 22 10 12 - - -
02/08:00am - - - - - N 19 20 10 11 - - -
02/07:30am - - - - - NNW 20 22 11 12 - - -
02/07:00am - - - - - N 22 26 12 14 - - -
02/06:30am - - - - - N 26 28 14 15 - - -
02/06:00am - - - - - N 26 32 14 17 - - -
02/05:30am - - - - - NNW 32 39 17 21 - - -
02/05:00am - - - - - NNW 32 37 17 20 - - -
02/04:30am - - - - - N 33 39 18 21 - - -
02/04:00am - - - - - N 32 39 17 21 - - -
02/03:30am - - - - - N 32 37 17 20 - - -
02/03:00am - - - - - N 33 39 18 21 - - -
02/02:30am - - - - - NNW 35 43 19 23 - - -
02/02:00am - - - - - NNW 33 41 18 22 - - -
02/01:30am - - - - - N 33 39 18 21 - - -
02/01:00am - - - - - N 33 41 18 22 - - -
02/12:30am - - - - - N 32 37 17 20 - - -
02/12:00am - - - - - N 28 35 15 19 - - -
 
Date/Time
EST
Temp
°C
App
Temp
°C
Dew
Point
°C
Rel
Hum
%
Delta-T
°C
Wind Press
QNH
hPa
Press
MSL
hPa
Rain since
9am
mm
Dir  Spd
km/h
Gust
km/h
Spd
kts
Gust
kts
01/11:30pm - - - - - N 28 33 15 18 - - -
01/11:00pm - - - - - N 30 33 16 18 - - -
01/10:30pm - - - - - N 30 35 16 19 - - -
01/10:00pm - - - - - N 28 32 15 17 - - -
01/09:30pm - - - - - N 22 26 12 14 - - -
01/09:00pm - - - - - N 28 33 15 18 - - -
01/08:30pm - - - - - N 24 30 13 16 - - -
01/08:00pm - - - - - N 24 32 13 17 - - -
01/07:30pm - - - - - NNE 19 24 10 13 - - -
01/07:00pm - - - - - N 19 24 10 13 - - -
01/06:30pm - - - - - NNE 20 26 11 14 - - -
01/06:00pm - - - - - NNE 20 24 11 13 - - -
01/05:30pm - - - - - NNE 24 28 13 15 - - -
01/05:00pm - - - - - NNE 22 30 12 16 - - -
01/04:30pm - - - - - NNE 26 32 14 17 - - -
01/04:00pm - - - - - NNE 26 32 14 17 - - -
01/03:30pm - - - - - NNE 28 33 15 18 - - -
01/03:00pm - - - - - NNE 28 32 15 17 - - -
01/02:30pm - - - - - NNE 24 28 13 15 - - -
01/02:00pm - - - - - N 20 22 11 12 - - -
01/01:30pm - - - - - N 19 22 10 12 - - -
01/01:00pm - - - - - N 20 22 11 12 - - -
01/12:30pm - - - - - N 20 22 11 12 - - -

Other formats

Comma delimited format used in spreadsheet applications
http://www.bom.gov.au/fwo/IDQ60801/IDQ60801.94591.axf

JavaScript Object Notation format (JSON) in row-major order
http://www.bom.gov.au/fwo/IDQ60801/IDQ60801.94591.json

Data quality

Most of these data are generated automatically and are frequently updated. Quality checks on data are not normally performed. It is possible for incorrect values to appear. Refer to information at About Latest Weather Observations and please check the disclaimer before using these data.